Time;durP1;ratioP1;P1;durP2;ratioP2;P2;SDS_P1;SDS_P2;PMS_P1;PMS_P2;Temp;Humidity;BMP_temperature;BMP_pressure;BME280_temperature;BME280_humidity;BME280_pressure;Samples;Min_cycle;Max_cycle;Signal;HPM_P1;HPM_P2
2023/11/03 00:02:13;;;;;;;2.90;1.00;;;10.90;99.90;;;;;;5042307;27;20509;-72
2023/11/03 00:04:39;;;;;;;1.63;0.70;;;11.00;99.90;;;;;;5041078;27;20037;-73
2023/11/03 00:07:05;;;;;;;2.75;0.93;;;10.90;99.90;;;;;;5047485;27;20049;-72
2023/11/03 00:09:37;;;;;;;2.67;0.90;;;10.90;99.90;;;;;;5046224;27;20101;-72
2023/11/03 00:12:03;;;;;;;4.88;1.23;;;10.90;99.90;;;;;;5044936;27;20068;-73
2023/11/03 00:14:30;;;;;;;2.70;0.65;;;10.90;99.90;;;;;;5043569;27;20024;-73
2023/11/03 00:16:56;;;;;;;2.22;0.82;;;11.00;99.90;;;;;;5044586;27;20090;-72
2023/11/03 00:19:25;;;;;;;2.13;0.70;;;11.00;99.90;;;;;;5039938;27;20052;-72
2023/11/03 00:21:54;;;;;;;2.03;0.60;;;11.00;99.90;;;;;;5049157;27;20024;-72
2023/11/03 00:24:20;;;;;;;1.05;0.63;;;10.90;99.90;;;;;;5048026;27;20074;-72
2023/11/03 00:26:54;;;;;;;1.48;0.80;;;10.90;99.90;;;;;;5047986;27;20029;-72
2023/11/03 00:29:23;;;;;;;2.40;0.90;;;11.00;99.90;;;;;;5053540;27;20041;-73
2023/11/03 00:31:49;;;;;;;2.15;0.75;;;11.00;99.90;;;;;;5048796;27;20024;-72
2023/11/03 00:34:15;;;;;;;3.10;1.10;;;10.90;99.90;;;;;;5048884;27;20100;-73
2023/11/03 00:36:42;;;;;;;4.25;0.68;;;10.90;99.90;;;;;;5046181;27;20037;-72
2023/11/03 00:39:12;;;;;;;1.38;0.70;;;10.90;99.90;;;;;;5039163;27;20039;-72
2023/11/03 00:41:50;;;;;;;1.75;0.52;;;10.90;99.90;;;;;;5050762;27;20048;-73
2023/11/03 00:44:17;;;;;;;1.23;0.80;;;10.90;99.90;;;;;;5050464;27;20033;-73
2023/11/03 00:46:43;;;;;;;5.47;0.98;;;10.80;99.90;;;;;;5041924;27;20021;-73
2023/11/03 00:49:10;;;;;;;2.35;0.77;;;10.90;99.90;;;;;;5039205;27;20499;-73
2023/11/03 00:51:36;;;;;;;1.10;0.70;;;10.80;99.90;;;;;;5041469;28;20030;-72
2023/11/03 00:54:06;;;;;;;1.63;0.70;;;10.90;99.90;;;;;;5037529;28;20029;-72
2023/11/03 00:56:33;;;;;;;2.95;0.95;;;10.80;99.90;;;;;;5040168;28;20025;-72
2023/11/03 00:58:59;;;;;;;1.98;0.73;;;10.80;99.90;;;;;;5045876;27;20045;-72
2023/11/03 01:01:25;;;;;;;1.27;0.70;;;10.90;99.90;;;;;;5039910;28;20029;-73
2023/11/03 01:03:53;;;;;;;1.85;0.90;;;10.90;99.90;;;;;;5042002;28;20047;-73
2023/11/03 01:06:19;;;;;;;1.80;0.93;;;10.90;99.90;;;;;;5043782;27;20021;-72
2023/11/03 01:08:44;;;;;;;5.13;0.82;;;10.90;99.90;;;;;;5042976;27;20037;-73
2023/11/03 01:11:12;;;;;;;2.53;0.80;;;10.90;99.90;;;;;;5046400;28;20032;-72
2023/11/03 01:13:37;;;;;;;1.25;0.70;;;10.80;99.90;;;;;;5036630;28;20465;-73
2023/11/03 01:16:10;;;;;;;2.85;0.88;;;10.80;99.90;;;;;;5042226;28;20025;-73
2023/11/03 01:18:39;;;;;;;;;;;10.80;99.90;;;;;;5040556;28;20064;-73
2023/11/03 01:21:12;;;;;;;2.47;0.60;;;10.80;99.90;;;;;;5039048;28;20660;-73
2023/11/03 01:23:41;;;;;;;3.10;0.60;;;10.90;99.90;;;;;;5045638;27;20094;-72
2023/11/03 01:26:10;;;;;;;1.75;0.70;;;10.90;99.90;;;;;;5040117;27;20028;-73
2023/11/03 01:28:36;;;;;;;3.05;1.02;;;10.90;99.90;;;;;;5039923;28;20049;-74
2023/11/03 01:31:04;;;;;;;2.40;1.00;;;10.80;99.90;;;;;;5039534;28;20382;-73
2023/11/03 01:33:30;;;;;;;2.75;0.73;;;10.90;99.90;;;;;;5046807;27;20022;-73
2023/11/03 01:35:57;;;;;;;1.42;0.63;;;10.90;99.90;;;;;;5040326;28;20068;-73
2023/11/03 01:38:23;;;;;;;4.95;1.05;;;10.80;99.90;;;;;;5040804;28;20037;-74
2023/11/03 01:40:48;;;;;;;1.52;0.60;;;10.90;99.90;;;;;;5038943;28;20537;-72
2023/11/03 01:43:14;;;;;;;2.35;0.80;;;10.80;99.90;;;;;;5043053;28;20030;-72
2023/11/03 01:45:40;;;;;;;1.05;0.77;;;10.80;99.90;;;;;;5035953;28;20025;-73
2023/11/03 01:48:07;;;;;;;6.90;1.15;;;10.90;99.90;;;;;;5040201;27;20045;-72
2023/11/03 01:50:35;;;;;;;5.05;1.00;;;10.80;99.90;;;;;;5046677;28;20106;-73
2023/11/03 01:53:02;;;;;;;1.75;0.80;;;10.90;99.90;;;;;;5041973;27;20037;-73
2023/11/03 01:55:29;;;;;;;1.08;0.80;;;10.80;99.90;;;;;;5042251;28;20021;-73
2023/11/03 01:57:55;;;;;;;2.22;0.90;;;10.80;99.90;;;;;;5032714;28;20068;-74
2023/11/03 02:00:22;;;;;;;2.20;0.77;;;10.90;99.90;;;;;;5040582;28;20144;-73
2023/11/03 02:02:52;;;;;;;9.13;1.40;;;10.80;99.90;;;;;;5041493;27;20075;-73
2023/11/03 02:05:18;;;;;;;2.22;1.00;;;10.80;99.90;;;;;;5038354;28;20029;-73
2023/11/03 02:07:43;;;;;;;2.15;0.98;;;10.80;99.90;;;;;;5035438;27;20041;-73
2023/11/03 02:10:09;;;;;;;1.48;0.80;;;10.80;99.90;;;;;;5040732;28;20025;-73
2023/11/03 02:12:35;;;;;;;2.08;0.77;;;10.80;99.90;;;;;;5043532;27;20035;-73
2023/11/03 02:15:01;;;;;;;4.45;0.75;;;10.80;99.90;;;;;;5043461;28;20018;-72
2023/11/03 02:17:27;;;;;;;3.25;0.88;;;10.70;99.90;;;;;;5039495;27;20025;-73
2023/11/03 02:19:53;;;;;;;5.78;1.23;;;10.70;99.90;;;;;;5041655;27;20544;-72
2023/11/03 02:22:18;;;;;;;1.90;1.10;;;10.80;99.90;;;;;;5033933;27;20025;-74
2023/11/03 02:24:44;;;;;;;2.33;0.93;;;10.70;99.90;;;;;;5039883;27;20089;-73
2023/11/03 02:27:09;;;;;;;5.13;1.02;;;10.70;99.90;;;;;;5035649;28;20495;-73
2023/11/03 02:29:35;;;;;;;5.00;1.10;;;10.70;99.90;;;;;;5043938;28;20505;-75
2023/11/03 02:32:01;;;;;;;3.38;1.35;;;10.70;99.90;;;;;;5045460;27;20132;-73
2023/11/03 02:34:27;;;;;;;3.05;1.02;;;10.70;99.90;;;;;;5033744;28;20036;-73
2023/11/03 02:36:52;;;;;;;2.58;1.02;;;10.70;99.90;;;;;;5042225;27;20044;-73
2023/11/03 02:39:18;;;;;;;3.67;0.70;;;10.80;99.90;;;;;;5039025;27;20096;-74
2023/11/03 02:41:44;;;;;;;2.63;0.57;;;10.70;99.90;;;;;;5046579;28;20495;-76
2023/11/03 02:44:10;;;;;;;4.00;0.88;;;10.70;99.90;;;;;;5043035;28;20032;-73
2023/11/03 02:46:35;;;;;;;2.30;0.70;;;10.70;99.90;;;;;;5041444;27;20029;-73
2023/11/03 02:49:01;;;;;;;3.20;0.90;;;10.70;99.90;;;;;;5040452;27;20080;-73
2023/11/03 02:51:27;;;;;;;3.40;0.90;;;10.80;99.90;;;;;;5041878;28;20078;-73
2023/11/03 02:53:52;;;;;;;3.25;0.80;;;10.60;99.90;;;;;;5042779;28;20045;-72
2023/11/03 02:56:24;;;;;;;3.45;1.20;;;10.70;99.90;;;;;;5033274;27;20225;-72
2023/11/03 02:58:52;;;;;;;3.00;1.08;;;10.80;99.90;;;;;;5039510;28;20029;-74
2023/11/03 03:01:24;;;;;;;4.68;1.20;;;10.70;99.90;;;;;;5040078;28;20021;-73
2023/11/03 03:03:50;;;;;;;3.97;0.98;;;10.80;99.90;;;;;;5036874;28;20029;-73
2023/11/03 03:06:16;;;;;;;2.90;0.90;;;10.80;99.90;;;;;;5037979;28;20028;-72
2023/11/03 03:08:41;;;;;;;2.03;1.00;;;10.80;99.90;;;;;;5036219;28;20048;-72
2023/11/03 03:11:07;;;;;;;5.80;1.42;;;10.80;99.90;;;;;;5037571;27;20021;-73
2023/11/03 03:13:32;;;;;;;4.25;1.30;;;10.70;99.90;;;;;;5044887;27;20033;-74
2023/11/03 03:15:58;;;;;;;4.07;1.20;;;10.70;99.90;;;;;;5039879;28;20025;-73
2023/11/03 03:18:24;;;;;;;5.97;1.23;;;10.80;99.90;;;;;;5032525;28;20022;-73
2023/11/03 03:20:50;;;;;;;6.55;1.80;;;10.80;99.90;;;;;;5037250;28;20101;-73
2023/11/03 03:23:16;;;;;;;7.43;1.45;;;10.90;99.90;;;;;;5036075;28;20112;-72
2023/11/03 03:25:42;;;;;;;10.13;1.58;;;10.90;99.90;;;;;;5038551;28;20029;-73
2023/11/03 03:28:07;;;;;;;5.47;1.48;;;10.80;99.90;;;;;;5038249;27;20041;-73
2023/11/03 03:30:33;;;;;;;2.95;1.65;;;10.90;99.90;;;;;;5039547;28;20025;-73
2023/11/03 03:32:59;;;;;;;6.18;1.40;;;10.90;99.90;;;;;;5037567;27;20073;-73
2023/11/03 03:35:24;;;;;;;8.57;1.58;;;10.90;99.90;;;;;;5037538;28;20033;-73
2023/11/03 03:37:50;;;;;;;4.47;1.30;;;10.90;99.90;;;;;;5040699;28;20478;-73
2023/11/03 03:40:15;;;;;;;7.45;1.38;;;10.90;99.90;;;;;;5038452;27;20081;-73
2023/11/03 03:42:42;;;;;;;6.85;1.38;;;10.90;99.90;;;;;;5036751;27;20616;-74
2023/11/03 03:45:09;;;;;;;5.90;1.52;;;10.80;99.90;;;;;;5037109;27;20026;-73
2023/11/03 03:47:35;;;;;;;8.10;2.00;;;10.80;99.90;;;;;;5039990;27;20124;-72
2023/11/03 03:50:02;;;;;;;9.07;1.70;;;10.80;99.90;;;;;;5034614;28;20545;-72
2023/11/03 03:52:28;;;;;;;10.15;1.60;;;10.80;99.90;;;;;;5039806;27;20044;-72
2023/11/03 03:54:54;;;;;;;13.18;2.03;;;10.90;99.90;;;;;;5037425;28;20017;-72
2023/11/03 03:57:19;;;;;;;6.15;1.45;;;10.80;99.90;;;;;;5040443;28;20029;-73
2023/11/03 03:59:45;;;;;;;5.05;1.40;;;10.80;99.90;;;;;;5037749;28;20666;-74
2023/11/03 04:02:11;;;;;;;8.45;1.85;;;10.80;99.90;;;;;;5041738;28;20113;-73
2023/11/03 04:04:37;;;;;;;7.45;1.70;;;10.90;99.90;;;;;;5038873;28;20542;-72
2023/11/03 04:07:03;;;;;;;7.63;1.90;;;10.90;99.90;;;;;;5044307;27;20472;-73
2023/11/03 04:09:29;;;;;;;5.45;1.83;;;11.00;99.90;;;;;;5038339;28;20073;-72
2023/11/03 04:11:54;;;;;;;10.23;1.77;;;10.90;99.90;;;;;;5042606;27;20032;-72
2023/11/03 04:14:20;;;;;;;5.68;1.40;;;10.90;99.90;;;;;;5039454;28;20029;-73
2023/11/03 04:16:46;;;;;;;5.90;1.80;;;10.90;99.90;;;;;;5043065;28;20381;-72
2023/11/03 04:19:12;;;;;;;6.13;1.52;;;11.00;99.90;;;;;;5040912;28;20029;-73
2023/11/03 04:21:37;;;;;;;10.95;2.05;;;11.00;99.90;;;;;;5043321;27;20025;-73
2023/11/03 04:24:03;;;;;;;10.90;1.58;;;11.00;99.90;;;;;;5041589;28;20061;-73
2023/11/03 04:26:29;;;;;;;5.93;1.52;;;11.00;99.90;;;;;;5042041;28;20104;-72
2023/11/03 04:28:55;;;;;;;11.35;2.47;;;11.00;99.90;;;;;;5038358;28;20170;-76
2023/11/03 04:31:21;;;;;;;7.20;2.00;;;11.00;99.90;;;;;;5044801;28;20108;-73
2023/11/03 04:33:47;;;;;;;9.05;1.80;;;11.00;99.90;;;;;;5040430;27;20029;-73
2023/11/03 04:36:13;;;;;;;8.38;1.67;;;10.90;99.90;;;;;;5042097;28;20035;-73
2023/11/03 04:38:38;;;;;;;6.80;1.83;;;10.90;99.90;;;;;;5042998;27;20516;-73
2023/11/03 04:41:04;;;;;;;7.88;2.38;;;10.80;99.90;;;;;;5041168;28;20397;-73
2023/11/03 04:43:35;;;;;;;7.95;2.13;;;10.80;99.90;;;;;;5042789;28;20026;-73
2023/11/03 04:46:03;;;;;;;10.77;2.17;;;10.80;99.90;;;;;;5040945;28;20032;-74
2023/11/03 04:48:30;;;;;;;5.97;1.80;;;10.80;99.90;;;;;;5041610;28;20060;-73
2023/11/03 04:50:56;;;;;;;5.97;1.75;;;10.70;99.90;;;;;;5043857;28;20104;-73
2023/11/03 04:53:22;;;;;;;6.55;2.08;;;10.80;99.90;;;;;;5044834;27;20029;-74
2023/11/03 04:55:47;;;;;;;12.05;2.28;;;10.80;99.90;;;;;;5040074;28;20029;-74
2023/11/03 04:58:15;;;;;;;11.40;2.40;;;10.80;99.90;;;;;;5038680;28;20510;-73
2023/11/03 05:00:41;;;;;;;8.25;2.30;;;10.70;99.90;;;;;;5035848;28;20043;-73
2023/11/03 05:03:07;;;;;;;10.88;2.17;;;10.80;99.90;;;;;;5046305;28;20105;-74
2023/11/03 05:05:32;;;;;;;9.52;2.13;;;10.70;99.90;;;;;;5037573;28;20125;-73
2023/11/03 05:07:58;;;;;;;7.32;2.08;;;10.70;99.90;;;;;;5041434;28;20051;-73
2023/11/03 05:10:24;;;;;;;5.65;1.77;;;10.80;99.90;;;;;;5041439;28;20049;-72
2023/11/03 05:12:50;;;;;;;8.50;2.10;;;10.70;99.90;;;;;;5040023;27;20072;-74
2023/11/03 05:15:16;;;;;;;8.48;1.77;;;10.80;99.90;;;;;;5048652;28;20438;-72
2023/11/03 05:17:41;;;;;;;13.60;2.67;;;10.80;99.90;;;;;;5042938;27;20039;-73
2023/11/03 05:20:09;;;;;;;11.13;2.13;;;10.70;99.90;;;;;;5039299;27;20501;-73
2023/11/03 05:22:35;;;;;;;7.22;1.98;;;10.70;99.90;;;;;;5046089;28;20504;-72
2023/11/03 05:25:02;;;;;;;10.90;2.15;;;10.80;99.90;;;;;;5044231;27;20438;-73
2023/11/03 05:27:28;;;;;;;9.20;2.78;;;10.80;99.90;;;;;;5038800;27;20040;-72
2023/11/03 05:29:53;;;;;;;9.68;2.33;;;10.70;99.90;;;;;;5039881;28;20055;-72
2023/11/03 05:32:19;;;;;;;8.82;2.22;;;10.70;99.90;;;;;;5044278;28;20025;-71
2023/11/03 05:34:45;;;;;;;4.35;1.80;;;10.70;99.90;;;;;;5035918;28;20501;-71
2023/11/03 05:37:11;;;;;;;9.70;2.58;;;10.70;99.90;;;;;;5038521;28;20040;-71
2023/11/03 05:39:37;;;;;;;9.48;2.35;;;10.70;99.90;;;;;;5040150;27;20025;-71
2023/11/03 05:42:04;;;;;;;4.10;1.60;;;10.70;99.90;;;;;;5035016;28;20078;-75
2023/11/03 05:44:30;;;;;;;7.78;2.10;;;10.70;99.90;;;;;;5040235;27;20036;-71
2023/11/03 05:46:56;;;;;;;8.80;1.63;;;10.80;99.90;;;;;;5035499;28;20033;-72
2023/11/03 05:49:22;;;;;;;5.22;1.95;;;10.70;99.90;;;;;;5041878;27;20044;-73
2023/11/03 05:51:49;;;;;;;10.23;2.05;;;10.70;99.90;;;;;;5040911;28;20069;-72
2023/11/03 05:54:15;;;;;;;8.43;1.77;;;10.70;99.90;;;;;;5041574;27;20022;-71
2023/11/03 05:56:41;;;;;;;11.00;2.20;;;10.70;99.90;;;;;;5036976;27;20380;-71
2023/11/03 05:59:07;;;;;;;5.45;1.50;;;10.70;99.90;;;;;;5042450;27;20043;-71
2023/11/03 06:01:33;;;;;;;9.07;2.03;;;10.70;99.90;;;;;;5040196;28;20056;-71
2023/11/03 06:04:02;;;;;;;4.60;1.30;;;10.60;99.90;;;;;;5043183;27;20052;-72
2023/11/03 06:06:27;;;;;;;10.20;1.90;;;10.60;99.90;;;;;;5048176;27;20081;-74
2023/11/03 06:08:54;;;;;;;5.07;1.52;;;10.60;99.90;;;;;;5044236;27;20037;-71
2023/11/03 06:11:20;;;;;;;8.63;2.60;;;10.60;99.90;;;;;;5045845;28;20124;-71
2023/11/03 06:13:45;;;;;;;4.78;1.35;;;10.60;99.90;;;;;;5038082;27;20524;-73
2023/11/03 06:16:11;;;;;;;8.70;2.30;;;10.60;99.90;;;;;;5037845;28;20560;-72
2023/11/03 06:18:37;;;;;;;9.52;2.22;;;10.60;99.90;;;;;;5042112;27;20025;-73
2023/11/03 06:21:03;;;;;;;7.63;2.20;;;10.60;99.90;;;;;;5042781;28;20057;-72
2023/11/03 06:23:28;;;;;;;4.72;1.52;;;10.60;99.90;;;;;;5036974;28;20028;-72
2023/11/03 06:25:54;;;;;;;12.85;1.98;;;10.50;99.90;;;;;;5033833;28;20481;-72
2023/11/03 06:28:20;;;;;;;5.97;1.55;;;10.70;99.90;;;;;;5038070;27;20033;-72
2023/11/03 06:30:45;;;;;;;5.65;1.73;;;10.70;99.90;;;;;;5038458;27;20056;-72
2023/11/03 06:33:11;;;;;;;7.82;1.50;;;10.50;99.90;;;;;;5038226;28;20255;-72
2023/11/03 06:35:37;;;;;;;7.20;2.25;;;10.50;99.90;;;;;;5047423;27;20029;-75
2023/11/03 06:38:02;;;;;;;6.20;1.48;;;10.70;99.90;;;;;;5037760;28;20428;-72
2023/11/03 06:40:28;;;;;;;6.88;1.30;;;10.70;99.90;;;;;;5039449;28;20025;-72
2023/11/03 06:42:54;;;;;;;6.53;1.92;;;10.70;99.90;;;;;;5038377;28;20037;-73
2023/11/03 06:45:20;;;;;;;12.50;2.25;;;10.60;99.90;;;;;;5042786;27;20493;-72
2023/11/03 06:47:47;;;;;;;8.43;1.80;;;10.60;99.90;;;;;;5035544;28;20045;-72
2023/11/03 06:50:13;;;;;;;9.18;1.77;;;10.60;99.90;;;;;;5034507;28;20029;-72
2023/11/03 06:52:39;;;;;;;8.50;1.85;;;10.60;99.90;;;;;;5039127;28;20040;-72
2023/11/03 06:55:07;;;;;;;6.25;1.77;;;10.70;99.90;;;;;;5041143;28;20032;-72
2023/11/03 06:57:32;;;;;;;8.93;2.15;;;10.70;99.90;;;;;;5034583;28;20025;-72
2023/11/03 06:59:59;;;;;;;10.00;3.25;;;10.70;99.90;;;;;;5038829;27;20031;-71
2023/11/03 07:02:25;;;;;;;9.80;2.15;;;10.80;99.90;;;;;;5032979;28;20022;-72
2023/11/03 07:04:52;;;;;;;14.40;3.20;;;10.70;99.90;;;;;;5039668;28;20032;-74
2023/11/03 07:07:18;;;;;;;7.88;1.90;;;10.60;99.90;;;;;;5041509;27;20101;-73
2023/11/03 07:09:44;;;;;;;11.23;2.15;;;10.70;99.90;;;;;;5038527;28;20480;-72
2023/11/03 07:12:10;;;;;;;7.18;1.60;;;10.70;99.90;;;;;;5041118;28;20401;-73
2023/11/03 07:14:36;;;;;;;11.45;2.10;;;10.60;99.90;;;;;;5040434;28;20029;-72
2023/11/03 07:17:02;;;;;;;9.82;1.98;;;10.60;99.90;;;;;;5043791;28;20025;-72
2023/11/03 07:19:28;;;;;;;15.23;2.40;;;10.70;99.90;;;;;;5036658;28;20082;-75
2023/11/03 07:21:55;;;;;;;6.40;2.08;;;10.70;99.90;;;;;;5040400;27;20481;-73
2023/11/03 07:24:23;;;;;;;11.57;1.73;;;10.80;99.90;;;;;;5040797;28;20164;-75
2023/11/03 07:26:53;;;;;;;7.80;2.10;;;10.80;99.90;;;;;;5037996;28;20029;-78
2023/11/03 07:29:19;;;;;;;10.00;1.90;;;10.70;99.90;;;;;;5037849;28;20025;-73
2023/11/03 07:31:46;;;;;;;11.63;1.80;;;10.70;99.90;;;;;;5044360;28;20350;-73
2023/11/03 07:34:12;;;;;;;7.50;1.73;;;10.70;99.90;;;;;;5039004;27;20028;-73
2023/11/03 07:36:38;;;;;;;10.05;1.98;;;10.70;99.90;;;;;;5039512;28;20068;-72
2023/11/03 07:39:06;;;;;;;11.90;2.63;;;10.70;99.90;;;;;;5032118;27;20060;-73
2023/11/03 07:41:35;;;;;;;8.77;1.73;;;10.70;99.90;;;;;;5051098;27;20038;-73
2023/11/03 07:44:01;;;;;;;11.65;2.03;;;10.70;99.90;;;;;;5037656;28;20052;-74
2023/11/03 07:46:30;;;;;;;12.00;2.00;;;10.70;99.90;;;;;;5037191;28;20081;-73
2023/11/03 07:49:01;;;;;;;8.35;2.28;;;10.60;99.90;;;;;;5041982;28;20081;-74
2023/11/03 07:51:30;;;;;;;7.82;1.95;;;10.70;99.90;;;;;;5037681;28;20091;-77
2023/11/03 07:53:56;;;;;;;12.02;1.95;;;10.70;99.90;;;;;;5038063;28;20029;-75
2023/11/03 07:56:22;;;;;;;7.22;1.80;;;10.80;99.90;;;;;;5039463;28;20030;-74
2023/11/03 07:58:48;;;;;;;8.25;2.35;;;10.80;99.90;;;;;;5045907;28;20420;-73
2023/11/03 08:01:15;;;;;;;7.97;2.25;;;10.70;99.90;;;;;;5034625;28;20039;-75
2023/11/03 08:03:41;;;;;;;13.43;2.20;;;10.70;99.90;;;;;;5048559;27;20021;-74
2023/11/03 08:06:07;;;;;;;13.43;2.28;;;10.80;99.90;;;;;;5039485;28;20043;-74
2023/11/03 08:08:33;;;;;;;8.90;2.58;;;10.80;99.90;;;;;;5040491;27;20037;-74
2023/11/03 08:10:59;;;;;;;10.77;2.38;;;10.80;99.90;;;;;;5040823;28;20084;-74
2023/11/03 08:13:27;;;;;;;7.38;1.75;;;10.80;99.90;;;;;;5038847;28;20025;-74
2023/11/03 08:15:53;;;;;;;11.32;2.13;;;10.80;99.90;;;;;;5039477;28;20109;-74
2023/11/03 08:18:18;;;;;;;8.13;2.22;;;10.90;99.90;;;;;;5040538;28;20104;-73
2023/11/03 08:20:45;;;;;;;10.40;2.35;;;10.80;99.90;;;;;;5038128;27;20021;-75
2023/11/03 08:23:11;;;;;;;10.50;2.03;;;10.70;99.90;;;;;;5034019;27;20025;-76
2023/11/03 08:25:40;;;;;;;12.35;2.25;;;10.90;99.90;;;;;;5035531;28;20078;-74
2023/11/03 08:28:06;;;;;;;11.30;1.80;;;10.90;99.90;;;;;;5043625;28;20052;-79
2023/11/03 08:30:33;;;;;;;6.53;1.67;;;11.00;99.90;;;;;;5061569;27;20477;-75
2023/11/03 08:32:58;;;;;;;9.93;2.47;;;11.10;99.90;;;;;;5040286;27;20528;-74
2023/11/03 08:35:26;;;;;;;16.45;2.22;;;11.00;99.90;;;;;;5037779;28;20112;-75
2023/11/03 08:37:52;;;;;;;10.27;2.08;;;11.10;99.90;;;;;;5040119;27;20087;-76
2023/11/03 08:40:20;;;;;;;15.10;2.30;;;11.00;99.90;;;;;;5039443;28;20218;-76
2023/11/03 08:42:46;;;;;;;12.15;1.70;;;11.00;99.90;;;;;;5045022;28;20025;-75
2023/11/03 08:45:14;;;;;;;7.43;2.03;;;11.00;99.90;;;;;;5042160;28;20033;-77
2023/11/03 08:47:41;;;;;;;9.00;2.03;;;11.00;99.90;;;;;;5036894;28;20036;-75
2023/11/03 08:50:11;;;;;;;12.00;2.13;;;11.10;99.90;;;;;;5036446;28;20511;-76
2023/11/03 08:52:37;;;;;;;10.52;2.40;;;11.10;99.90;;;;;;5049024;27;20064;-76
2023/11/03 08:55:06;;;;;;;7.90;1.92;;;11.20;99.90;;;;;;5041805;27;20025;-75
2023/11/03 08:57:36;;;;;;;8.25;2.28;;;11.30;99.90;;;;;;5038265;28;20025;-75
2023/11/03 09:00:08;;;;;;;8.98;1.95;;;11.30;99.90;;;;;;5042876;28;20049;-74
2023/11/03 09:02:44;;;;;;;13.40;1.83;;;11.40;99.90;;;;;;5039640;28;20013;-74
2023/11/03 09:05:11;;;;;;;8.77;1.65;;;11.40;99.90;;;;;;5042654;28;20358;-74
2023/11/03 09:07:41;;;;;;;10.23;2.33;;;11.50;99.90;;;;;;5039517;28;20044;-74
2023/11/03 09:10:10;;;;;;;8.07;2.25;;;11.60;99.90;;;;;;5042115;27;20454;-74
2023/11/03 09:12:41;;;;;;;9.98;2.53;;;11.60;99.90;;;;;;5044309;28;20005;-74
2023/11/03 09:15:07;;;;;;;14.23;2.40;;;11.70;99.90;;;;;;5039215;28;20026;-74
2023/11/03 09:17:34;;;;;;;11.75;2.45;;;11.80;99.90;;;;;;5041723;27;20033;-74
2023/11/03 09:20:04;;;;;;;9.32;2.03;;;11.90;99.90;;;;;;5039732;27;20021;-74
2023/11/03 09:22:30;;;;;;;14.02;2.78;;;12.00;99.90;;;;;;5041438;27;20105;-74
2023/11/03 09:24:57;;;;;;;15.73;2.50;;;12.20;99.90;;;;;;5036221;28;20026;-74
2023/11/03 09:27:26;;;;;;;20.85;3.63;;;12.30;99.90;;;;;;5038627;27;20497;-74
2023/11/03 09:29:54;;;;;;;11.93;1.98;;;12.40;99.90;;;;;;5020273;27;20093;-74
2023/11/03 09:32:20;;;;;;;11.90;2.25;;;12.50;99.90;;;;;;5041120;27;20013;-74
2023/11/03 09:34:48;;;;;;;11.55;2.30;;;12.50;99.90;;;;;;5043327;27;20029;-73
2023/11/03 09:37:18;;;;;;;14.88;2.45;;;12.40;99.90;;;;;;5037858;27;20025;-75
2023/11/03 09:39:47;;;;;;;13.65;2.45;;;12.50;99.90;;;;;;5039878;27;20442;-76
2023/11/03 09:42:18;;;;;;;9.45;2.20;;;12.60;99.90;;;;;;5043269;27;20118;-75
2023/11/03 09:44:44;;;;;;;19.75;2.95;;;12.50;99.90;;;;;;5042557;27;20472;-75
2023/11/03 09:47:11;;;;;;;13.77;2.67;;;12.50;99.90;;;;;;5044803;27;20036;-75
2023/11/03 09:49:37;;;;;;;15.48;2.35;;;12.50;99.90;;;;;;5043548;27;20031;-76
2023/11/03 09:52:09;;;;;;;14.25;2.50;;;12.50;99.90;;;;;;5045339;27;20027;-80
2023/11/03 09:54:36;;;;;;;9.85;2.13;;;12.50;99.90;;;;;;5045484;27;20085;-76
2023/11/03 09:57:08;;;;;;;10.73;2.25;;;12.50;99.90;;;;;;5036287;27;20117;-74
2023/11/03 09:59:35;;;;;;;8.70;2.20;;;12.40;99.90;;;;;;5042240;27;20494;-77
2023/11/03 10:02:10;;;;;;;14.50;2.60;;;12.40;99.90;;;;;;5043620;27;20725;-73
2023/11/03 10:04:38;;;;;;;10.38;2.38;;;12.30;99.90;;;;;;5042050;27;20570;-73
2023/11/03 10:07:05;;;;;;;12.30;2.25;;;12.30;99.90;;;;;;5047541;27;20107;-74
2023/11/03 10:09:32;;;;;;;10.25;2.65;;;12.30;99.90;;;;;;5046115;27;20047;-74
2023/11/03 10:11:59;;;;;;;13.10;2.47;;;12.50;99.90;;;;;;5048585;27;20028;-73
2023/11/03 10:14:25;;;;;;;13.38;2.65;;;12.40;99.90;;;;;;5044556;27;20765;-74
2023/11/03 10:16:51;;;;;;;12.10;2.28;;;12.50;99.90;;;;;;5054461;27;20088;-75
2023/11/03 10:19:19;;;;;;;12.30;2.75;;;12.60;99.90;;;;;;5046337;27;20035;-73
2023/11/03 10:21:47;;;;;;;12.50;2.90;;;12.60;99.90;;;;;;5040839;27;20028;-75
2023/11/03 10:24:15;;;;;;;8.95;2.20;;;12.70;99.90;;;;;;5039551;27;20496;-77
2023/11/03 10:26:41;;;;;;;9.43;2.10;;;12.90;99.90;;;;;;5046057;27;20040;-77
2023/11/03 10:29:07;;;;;;;11.93;2.50;;;12.90;99.90;;;;;;5044099;27;20037;-76
2023/11/03 10:31:33;;;;;;;16.63;2.72;;;12.90;99.90;;;;;;5044987;27;20025;-75
2023/11/03 10:33:58;;;;;;;14.55;2.30;;;12.90;99.90;;;;;;5049181;27;20082;-78
2023/11/03 10:36:26;;;;;;;9.90;2.15;;;12.90;99.90;;;;;;5042492;27;20028;-75
2023/11/03 10:38:54;;;;;;;9.93;2.05;;;12.90;99.90;;;;;;5041995;27;20072;-75
2023/11/03 10:41:20;;;;;;;11.38;2.97;;;12.80;99.90;;;;;;5045123;27;20028;-75
2023/11/03 10:43:55;;;;;;;11.35;2.30;;;12.90;99.90;;;;;;5038264;27;20080;-73
2023/11/03 10:46:33;;;;;;;9.32;1.98;;;12.80;99.90;;;;;;5050279;27;20040;-75
2023/11/03 10:49:20;;;;;;;11.13;2.35;;;12.80;99.90;;;;;;5042619;27;20131;-74
2023/11/03 10:52:18;;;;;;;12.27;2.90;;;12.80;99.90;;;;;;5047524;27;20460;-74
2023/11/03 10:55:06;;;;;;;11.07;2.78;;;12.70;99.90;;;;;;5044863;27;20034;-74
2023/11/03 10:57:33;;;;;;;10.40;1.83;;;12.70;99.90;;;;;;5048328;27;20042;-73
2023/11/03 11:00:09;;;;;;;13.57;2.90;;;12.70;99.90;;;;;;5039228;27;20029;-78
2023/11/03 11:02:54;;;;;;;11.82;2.53;;;12.70;99.90;;;;;;5041226;27;20022;-78
2023/11/03 11:05:29;;;;;;;14.35;2.97;;;12.70;99.90;;;;;;5046036;27;20367;-75
2023/11/03 11:08:01;;;;;;;9.40;2.33;;;12.70;99.90;;;;;;5043172;27;20429;-73
2023/11/03 11:10:39;;;;;;;13.38;2.72;;;12.60;99.90;;;;;;5046334;27;20108;-79
2023/11/03 11:13:14;;;;;;;12.30;2.38;;;12.70;99.90;;;;;;5048170;27;20058;-74
2023/11/03 11:15:43;;;;;;;11.32;2.85;;;12.70;99.90;;;;;;5042156;27;20021;-75
2023/11/03 11:18:20;;;;;;;8.18;2.33;;;12.80;99.90;;;;;;5045815;27;20077;-79
2023/11/03 11:20:51;;;;;;;10.32;2.17;;;12.70;99.90;;;;;;5046910;27;20017;-77
2023/11/03 11:23:18;;;;;;;12.68;2.92;;;12.70;99.90;;;;;;5045537;27;20146;-73
2023/11/03 11:25:46;;;;;;;10.15;2.40;;;12.70;99.90;;;;;;5047742;27;20029;-75
2023/11/03 11:28:38;;;;;;;8.52;2.03;;;12.80;99.90;;;;;;5045687;27;20099;-78
2023/11/03 11:31:26;;;;;;;11.82;2.35;;;12.80;99.90;;;;;;5039659;27;20024;-77
2023/11/03 11:34:13;;;;;;;10.77;2.42;;;12.80;99.90;;;;;;5044947;27;20536;-76
2023/11/03 11:36:40;;;;;;;8.32;2.92;;;12.90;99.90;;;;;;5041722;27;20029;-76
2023/11/03 11:39:16;;;;;;;10.30;2.65;;;12.80;99.90;;;;;;5047201;27;20029;-77
2023/11/03 11:41:51;;;;;;;13.32;2.85;;;12.80;99.90;;;;;;5041397;27;20481;-73
2023/11/03 11:44:19;;;;;;;12.85;2.10;;;12.80;99.90;;;;;;5051577;27;20496;-76
2023/11/03 11:46:51;;;;;;;9.05;2.22;;;12.80;99.90;;;;;;5043556;27;20021;-76
2023/11/03 11:49:21;;;;;;;9.60;2.35;;;12.80;99.90;;;;;;5038449;27;20049;-77
2023/11/03 11:51:48;;;;;;;16.27;2.25;;;12.90;99.90;;;;;;5049105;27;20020;-76
2023/11/03 11:54:17;;;;;;;11.00;2.40;;;13.00;99.90;;;;;;5053576;27;20020;-72
2023/11/03 11:56:44;;;;;;;11.57;2.25;;;13.20;99.90;;;;;;5041540;27;20021;-73
2023/11/03 11:59:12;;;;;;;10.32;2.17;;;13.20;99.90;;;;;;5036151;27;20483;-75
2023/11/03 12:01:37;;;;;;;7.88;2.38;;;13.20;99.90;;;;;;5048850;27;20124;-73
2023/11/03 12:04:04;;;;;;;13.60;2.30;;;13.20;99.90;;;;;;5039120;27;20473;-72
2023/11/03 12:06:31;;;;;;;13.15;2.20;;;13.10;99.90;;;;;;5047051;27;20025;-73
2023/11/03 12:08:58;;;;;;;12.07;1.88;;;13.10;99.90;;;;;;5050670;27;20029;-73
2023/11/03 12:11:24;;;;;;;10.02;2.03;;;13.00;99.90;;;;;;5054998;27;20057;-74
2023/11/03 12:13:50;;;;;;;9.63;1.65;;;13.10;99.90;;;;;;5050533;27;20477;-73
2023/11/03 12:16:19;;;;;;;14.00;2.33;;;13.10;99.90;;;;;;5046545;27;20033;-73
2023/11/03 12:18:44;;;;;;;11.27;2.17;;;13.00;99.90;;;;;;5044555;27;20107;-72
2023/11/03 12:21:10;;;;;;;8.48;2.50;;;13.00;99.90;;;;;;5049542;27;20152;-73
2023/11/03 12:23:38;;;;;;;9.60;2.05;;;13.00;99.90;;;;;;5043444;27;20042;-72
2023/11/03 12:26:04;;;;;;;8.85;2.47;;;13.10;99.90;;;;;;5046951;27;20471;-72
2023/11/03 12:28:31;;;;;;;8.73;2.22;;;13.10;99.90;;;;;;5042576;27;20041;-73
2023/11/03 12:30:59;;;;;;;15.50;2.70;;;13.20;99.90;;;;;;5047509;27;20624;-73
2023/11/03 12:33:27;;;;;;;14.50;2.30;;;13.30;99.90;;;;;;5046747;27;20155;-73
2023/11/03 12:35:54;;;;;;;9.40;2.15;;;13.20;99.90;;;;;;5047979;27;20021;-73
2023/11/03 12:38:20;;;;;;;10.60;2.17;;;13.10;99.90;;;;;;5048324;27;20162;-73
2023/11/03 12:40:47;;;;;;;9.57;2.15;;;13.20;99.90;;;;;;5050860;27;20033;-74
2023/11/03 12:43:17;;;;;;;9.63;2.10;;;13.20;99.90;;;;;;5045943;27;20116;-72
2023/11/03 12:45:47;;;;;;;10.02;1.98;;;13.10;99.90;;;;;;5039905;27;20021;-73